Time;durP1;ratioP1;P1;durP2;ratioP2;P2;SDS_P1;SDS_P2;PMS_P1;PMS_P2;Temp;Humidity;BMP_temperature;BMP_pressure;BME280_temperature;BME280_humidity;BME280_pressure;Samples;Min_cycle;Max_cycle;Signal;HPM_P1;HPM_P2
2022/08/31 00:03:55;;;;;;;15.77;11.30;;;;;;;17.86;79.43;96330.00;5050629;28;20056;-78
2022/08/31 00:06:22;;;;;;;12.20;9.52;;;;;;;17.87;79.64;96326.06;5049306;28;20057;-79
2022/08/31 00:08:48;;;;;;;13.88;9.95;;;;;;;17.89;79.84;96318.22;5050545;28;20037;-79
2022/08/31 00:11:15;;;;;;;15.75;10.43;;;;;;;17.95;79.90;96311.25;5050155;28;20488;-79
2022/08/31 00:13:45;;;;;;;12.25;10.15;;;;;;;17.95;79.51;96314.00;5050636;28;20044;-79
2022/08/31 00:16:13;;;;;;;12.15;9.10;;;;;;;17.94;79.70;96320.69;5050391;28;20516;-78
2022/08/31 00:18:39;;;;;;;14.15;9.75;;;;;;;18.00;80.10;96321.16;5050698;28;20119;-79
2022/08/31 00:21:06;;;;;;;13.32;10.30;;;;;;;17.93;79.97;96319.09;5050108;28;20045;-77
2022/08/31 00:23:33;;;;;;;15.40;9.32;;;;;;;17.93;80.07;96313.56;5050400;28;20424;-80
2022/08/31 00:25:59;;;;;;;12.43;10.10;;;;;;;17.94;79.60;96314.38;5050392;28;20576;-79
2022/08/31 00:28:25;;;;;;;11.85;9.73;;;;;;;17.92;79.98;96322.22;5050135;28;20045;-79
2022/08/31 00:30:52;;;;;;;14.73;10.10;;;;;;;17.91;80.15;96315.91;5050113;28;20492;-80
2022/08/31 00:33:20;;;;;;;13.30;10.02;;;;;;;17.87;80.37;96320.56;5049737;28;20044;-79
2022/08/31 00:35:46;;;;;;;13.60;10.10;;;;;;;17.81;80.75;96319.28;5055985;28;20519;-79
2022/08/31 00:38:14;;;;;;;12.15;9.63;;;;;;;17.79;80.84;96318.81;5069499;28;20416;-79
2022/08/31 00:40:43;;;;;;;11.75;9.65;;;;;;;17.77;81.32;96325.88;5069682;28;20037;-79
2022/08/31 00:43:10;;;;;;;16.08;10.60;;;;;;;17.74;81.39;96321.88;5069450;28;20040;-79
2022/08/31 00:45:36;;;;;;;14.52;10.38;;;;;;;17.71;81.86;96328.09;5070106;28;20045;-78
2022/08/31 00:48:03;;;;;;;12.63;10.23;;;;;;;17.66;82.17;96322.88;5069477;28;20041;-79
2022/08/31 00:50:33;;;;;;;15.95;9.82;;;;;;;17.65;82.15;96335.06;5069972;28;20044;-79
2022/08/31 00:53:01;;;;;;;13.18;9.68;;;;;;;17.63;81.98;96327.16;5069685;28;20033;-79
2022/08/31 00:55:31;;;;;;;12.38;9.50;;;;;;;17.61;82.13;96323.97;5069325;28;20037;-79
2022/08/31 00:58:01;;;;;;;12.70;10.45;;;;;;;17.65;82.31;96324.06;5069673;28;20040;-80
2022/08/31 01:00:28;;;;;;;14.63;10.23;;;;;;;17.68;82.31;96318.59;5069387;28;20060;-79
2022/08/31 01:02:56;;;;;;;10.48;8.68;;;;;;;17.71;82.01;96317.09;5069636;28;20127;-79
2022/08/31 01:05:23;;;;;;;12.48;9.98;;;;;;;17.73;82.15;96312.03;5064151;28;20086;-80
2022/08/31 01:07:52;;;;;;;14.98;10.25;;;;;;;17.76;82.43;96303.03;5049665;28;20057;-79
2022/08/31 01:10:22;;;;;;;13.77;10.20;;;;;;;17.82;82.17;96307.09;5049211;28;20045;-78
2022/08/31 01:12:51;;;;;;;15.00;9.85;;;;;;;17.83;82.15;96303.16;5049679;28;20041;-79
2022/08/31 01:15:18;;;;;;;13.38;9.98;;;;;;;17.89;82.13;96309.16;5049251;28;20052;-80
2022/08/31 01:17:51;;;;;;;11.52;8.70;;;;;;;17.91;82.07;96310.41;5049748;28;20045;-79
2022/08/31 01:20:24;;;;;;;14.20;9.57;;;;;;;17.97;81.54;96303.41;5049310;28;20045;-79
2022/08/31 01:23:05;;;;;;;12.35;9.50;;;;;;;17.97;80.35;96314.44;5049467;28;20413;-79
2022/08/31 01:25:34;;;;;;;14.15;8.85;;;;;;;17.99;80.80;96323.13;5049210;28;20051;-79
2022/08/31 01:28:04;;;;;;;12.70;8.70;;;;;;;18.04;81.01;96315.72;5049516;28;20040;-78
2022/08/31 01:30:31;;;;;;;12.95;8.52;;;;;;;18.04;80.21;96319.28;5049235;28;20065;-78
2022/08/31 01:32:57;;;;;;;10.73;8.40;;;;;;;18.07;79.18;96315.00;5049640;28;20041;-79
2022/08/31 01:35:24;;;;;;;12.40;9.07;;;;;;;18.09;79.62;96318.19;5048529;28;20071;-80
2022/08/31 01:37:51;;;;;;;15.07;9.32;;;;;;;18.09;79.74;96312.66;5049463;28;20481;-79
2022/08/31 01:40:19;;;;;;;12.18;8.82;;;;;;;18.11;79.14;96313.09;5049033;28;20056;-79
2022/08/31 01:42:46;;;;;;;12.98;8.20;;;;;;;18.10;78.75;96317.00;5049392;28;20419;-78
2022/08/31 01:45:12;;;;;;;13.23;8.88;;;;;;;18.12;79.40;96320.22;5048959;28;20045;-78
2022/08/31 01:47:40;;;;;;;10.48;8.30;;;;;;;18.14;79.70;96312.34;5050805;28;20052;-77
2022/08/31 01:50:07;;;;;;;10.50;8.55;;;;;;;18.15;79.76;96308.44;5052667;28;20102;-79
2022/08/31 01:52:36;;;;;;;10.65;8.05;;;;;;;18.19;79.71;96317.56;5052923;28;20049;-78
2022/08/31 01:55:04;;;;;;;12.85;9.23;;;;;;;18.10;79.04;96317.00;5052439;28;20123;-78
2022/08/31 01:57:32;;;;;;;11.68;8.73;;;;;;;18.13;78.72;96313.53;5053080;28;20400;-78
2022/08/31 01:59:59;;;;;;;12.18;8.35;;;;;;;18.20;79.34;96305.38;5052897;28;20045;-79
2022/08/31 02:02:26;;;;;;;10.38;8.18;;;;;;;18.22;78.30;96314.88;5052373;28;20516;-79
2022/08/31 02:04:52;;;;;;;11.30;8.48;;;;;;;18.20;78.02;96317.19;5051657;28;20048;-79
2022/08/31 02:07:19;;;;;;;13.57;9.13;;;;;;;18.14;78.25;96318.66;5070739;28;20048;-78
2022/08/31 02:09:45;;;;;;;12.75;8.30;;;;;;;18.11;78.65;96322.16;5072835;28;20044;-78
2022/08/31 02:12:11;;;;;;;13.63;8.85;;;;;;;18.09;79.27;96320.94;5072137;28;20056;-78
2022/08/31 02:14:39;;;;;;;12.02;8.75;;;;;;;18.05;79.38;96320.06;5072933;28;20044;-78
2022/08/31 02:17:06;;;;;;;11.38;8.82;;;;;;;18.04;79.36;96318.47;5071906;28;20051;-78
2022/08/31 02:19:32;;;;;;;11.82;9.20;;;;;;;17.98;79.92;96318.78;5072601;28;20044;-79
2022/08/31 02:21:59;;;;;;;11.85;9.02;;;;;;;17.97;79.98;96308.94;5072304;28;20047;-78
2022/08/31 02:24:25;;;;;;;15.65;9.50;;;;;;;18.00;80.61;96304.63;5071880;28;20040;-79
2022/08/31 02:26:52;;;;;;;17.40;10.07;;;;;;;18.02;81.06;96309.81;5072261;28;20051;-78
2022/08/31 02:29:18;;;;;;;14.80;9.80;;;;;;;18.04;80.33;96308.25;5071957;28;20048;-79
2022/08/31 02:31:46;;;;;;;12.80;9.48;;;;;;;17.98;79.92;96310.53;5072171;28;20045;-81
2022/08/31 02:34:12;;;;;;;12.18;9.27;;;;;;;17.97;80.26;96300.66;5071622;28;20514;-80
2022/08/31 02:36:41;;;;;;;14.73;9.18;;;;;;;17.93;80.54;96307.28;5070679;28;20135;-81
2022/08/31 02:39:08;;;;;;;15.95;9.23;;;;;;;17.87;80.88;96301.28;5071506;28;20468;-79
2022/08/31 02:41:34;;;;;;;11.82;9.23;;;;;;;17.87;81.26;96304.03;5071814;28;20051;-79
2022/08/31 02:44:01;;;;;;;12.68;10.00;;;;;;;17.87;81.13;96301.28;5071710;28;20056;-80
2022/08/31 02:46:28;;;;;;;10.95;9.07;;;;;;;17.83;81.57;96297.66;5071688;28;20036;-80
2022/08/31 02:48:55;;;;;;;12.88;9.95;;;;;;;17.79;81.59;96298.75;5071837;28;20257;-79
2022/08/31 02:51:22;;;;;;;15.35;10.20;;;;;;;17.73;81.95;96299.03;5071276;28;20056;-80
2022/08/31 02:53:49;;;;;;;15.52;10.10;;;;;;;17.65;82.25;96307.53;5071746;28;20044;-80
2022/08/31 02:56:16;;;;;;;15.48;9.88;;;;;;;17.62;82.58;96294.47;5071386;28;20582;-83
2022/08/31 02:58:43;;;;;;;16.33;9.90;;;;;;;17.60;82.91;96297.59;5071728;28;20045;-80
2022/08/31 03:01:10;;;;;;;13.05;9.90;;;;;;;17.64;83.38;96294.91;5071240;28;20052;-80
2022/08/31 03:03:37;;;;;;;13.82;9.65;;;;;;;17.68;83.73;96282.00;5071519;28;20045;-80
2022/08/31 03:06:05;;;;;;;14.68;10.90;;;;;;;17.72;83.20;96285.63;5060058;28;20127;-80
2022/08/31 03:08:32;;;;;;;13.65;9.95;;;;;;;17.74;83.07;96283.31;5051466;28;20045;-80
2022/08/31 03:10:58;;;;;;;14.90;10.60;;;;;;;17.70;82.95;96288.75;5051514;28;20041;-81
2022/08/31 03:13:25;;;;;;;13.45;10.43;;;;;;;17.64;83.33;96281.94;5051151;28;20377;-80
2022/08/31 03:15:51;;;;;;;13.32;10.20;;;;;;;17.61;83.51;96298.41;5051229;28;20052;-81
2022/08/31 03:18:18;;;;;;;16.23;11.55;;;;;;;17.55;83.80;96297.91;5051005;28;20095;-80
2022/08/31 03:20:44;;;;;;;15.60;10.15;;;;;;;17.46;84.33;96289.88;5051191;28;20524;-80
2022/08/31 03:23:14;;;;;;;14.88;10.90;;;;;;;17.42;84.92;96293.69;5050666;28;20045;-82
2022/08/31 03:25:40;;;;;;;15.45;10.63;;;;;;;17.41;85.28;96297.63;5051012;28;20037;-79
2022/08/31 03:28:07;;;;;;;18.90;11.48;;;;;;;17.37;85.40;96297.53;5050519;28;20408;-81
2022/08/31 03:30:34;;;;;;;16.85;11.35;;;;;;;17.34;85.64;96303.78;5051018;28;20047;-80
2022/08/31 03:33:01;;;;;;;18.02;11.27;;;;;;;17.32;85.99;96306.09;5050878;28;20060;-80
2022/08/31 03:35:27;;;;;;;15.73;11.00;;;;;;;17.27;86.33;96298.13;5050481;28;20037;-81
2022/08/31 03:37:54;;;;;;;15.10;10.95;;;;;;;17.30;86.50;96308.41;5050955;28;20037;-80
2022/08/31 03:40:22;;;;;;;17.45;11.90;;;;;;;17.29;86.65;96295.03;5050444;28;20524;-79
2022/08/31 03:42:48;;;;;;;17.17;11.77;;;;;;;17.27;86.62;96305.59;5050777;28;20048;-80
2022/08/31 03:45:16;;;;;;;15.70;11.82;;;;;;;17.26;86.83;96312.25;5050374;28;20564;-80
2022/08/31 03:47:42;;;;;;;15.43;10.73;;;;;;;17.25;86.76;96310.66;5050878;28;20045;-77
2022/08/31 03:50:10;;;;;;;14.50;10.93;;;;;;;17.24;86.80;96312.63;5050208;28;20056;-79
2022/08/31 03:52:37;;;;;;;16.63;11.00;;;;;;;17.26;86.56;96312.25;5050852;28;20044;-79
2022/08/31 03:55:06;;;;;;;17.50;11.43;;;;;;;17.27;86.88;96319.34;5050332;28;20102;-80
2022/08/31 03:57:35;;;;;;;15.48;10.60;;;;;;;17.27;86.66;96319.34;5050611;28;20514;-80
2022/08/31 04:00:04;;;;;;;15.38;11.32;;;;;;;17.27;86.34;96331.16;5050351;28;20048;-78
2022/08/31 04:02:30;;;;;;;12.68;10.60;;;;;;;17.30;86.48;96330.44;5050549;28;20496;-80
2022/08/31 04:04:57;;;;;;;20.10;12.27;;;;;;;17.31;86.08;96332.03;5049362;28;20040;-78
2022/08/31 04:07:23;;;;;;;17.83;11.20;;;;;;;17.32;85.87;96335.56;5030469;28;20064;-78
2022/08/31 04:09:50;;;;;;;18.42;12.63;;;;;;;17.29;86.27;96337.09;5030252;28;20044;-78
2022/08/31 04:12:18;;;;;;;16.95;11.98;;;;;;;17.34;86.03;96342.31;5030215;28;20041;-79
2022/08/31 04:14:46;;;;;;;17.80;11.80;;;;;;;17.32;85.98;96339.13;5030541;28;20049;-79
2022/08/31 04:17:13;;;;;;;19.08;11.98;;;;;;;17.38;85.93;96343.19;5029859;28;20421;-78
2022/08/31 04:19:40;;;;;;;18.10;11.60;;;;;;;17.43;86.04;96340.13;5030540;28;20049;-78
2022/08/31 04:22:07;;;;;;;17.27;11.27;;;;;;;17.47;85.60;96345.72;5030190;28;20386;-78
2022/08/31 04:24:33;;;;;;;16.30;11.45;;;;;;;17.47;85.73;96340.22;5030079;28;20045;-78
2022/08/31 04:27:00;;;;;;;17.92;11.63;;;;;;;17.47;85.42;96334.69;5030194;28;20052;-78
2022/08/31 04:29:26;;;;;;;13.52;10.82;;;;;;;17.50;85.66;96338.69;5029783;28;20603;-78
2022/08/31 04:31:54;;;;;;;16.80;11.95;;;;;;;17.48;85.87;96337.09;5030320;28;20059;-77
2022/08/31 04:34:21;;;;;;;17.77;12.20;;;;;;;17.54;85.99;96337.63;5029667;28;20049;-78
2022/08/31 04:36:47;;;;;;;16.77;12.20;;;;;;;17.57;85.77;96338.84;5062097;28;20049;-78
2022/08/31 04:39:14;;;;;;;14.50;11.25;;;;;;;17.56;85.56;96340.78;5069704;28;20040;-78
2022/08/31 04:41:41;;;;;;;17.73;11.50;;;;;;;17.54;85.61;96345.88;5070040;28;20094;-78
2022/08/31 04:44:10;;;;;;;16.55;11.50;;;;;;;17.51;85.78;96341.09;5069663;28;20045;-78
2022/08/31 04:46:38;;;;;;;18.27;11.77;;;;;;;17.52;85.60;96347.38;5070075;28;20094;-77
2022/08/31 04:49:08;;;;;;;16.13;11.02;;;;;;;17.50;85.76;96341.44;5069717;28;20043;-79
2022/08/31 04:51:35;;;;;;;16.65;11.07;;;;;;;17.50;85.78;96341.44;5070217;28;20055;-78
2022/08/31 04:54:02;;;;;;;15.85;11.45;;;;;;;17.47;85.79;96346.50;5069985;28;20098;-79
2022/08/31 04:56:31;;;;;;;15.68;11.23;;;;;;;17.46;86.07;96350.44;5069705;28;20032;-77
2022/08/31 04:58:59;;;;;;;15.18;11.55;;;;;;;17.41;85.90;96347.97;5069857;28;20052;-78
2022/08/31 05:01:28;;;;;;;18.92;11.02;;;;;;;17.40;86.17;96359.34;5069524;28;20044;-81
2022/08/31 05:03:56;;;;;;;15.68;10.93;;;;;;;17.44;86.61;96358.25;5069637;28;20067;-80
2022/08/31 05:06:26;;;;;;;18.33;11.05;;;;;;;17.47;86.18;96357.53;5055832;28;20044;-80
2022/08/31 05:08:54;;;;;;;15.20;11.35;;;;;;;17.52;85.94;96359.19;5049914;28;20044;-77
2022/08/31 05:11:22;;;;;;;17.42;11.88;;;;;;;17.56;85.85;96353.75;5049251;28;20096;-80
2022/08/31 05:13:49;;;;;;;16.83;11.35;;;;;;;17.59;85.89;96358.53;5049474;28;20041;-79
2022/08/31 05:16:17;;;;;;;14.60;10.88;;;;;;;17.60;85.89;96354.63;5049060;28;20408;-80
2022/08/31 05:18:46;;;;;;;14.68;11.00;;;;;;;17.65;85.72;96348.84;5049496;28;20040;-79
2022/08/31 05:21:14;;;;;;;15.60;10.88;;;;;;;17.69;85.81;96341.41;5049089;28;20052;-79
2022/08/31 05:23:45;;;;;;;15.75;10.55;;;;;;;17.72;85.52;96341.53;5052709;28;20042;-79
2022/08/31 05:26:17;;;;;;;17.77;11.50;;;;;;;17.70;85.40;96346.59;5052921;28;20045;-78
2022/08/31 05:28:44;;;;;;;16.88;11.18;;;;;;;17.68;85.28;96345.34;5053473;28;20446;-79
2022/08/31 05:31:10;;;;;;;18.85;11.23;;;;;;;17.70;84.77;96351.28;5052864;28;20052;-79
2022/08/31 05:33:37;;;;;;;26.35;11.55;;;;;;;17.81;83.99;96355.06;5053123;28;20049;-80
2022/08/31 05:36:04;;;;;;;13.27;9.80;;;;;;;17.82;83.78;96353.91;5052885;28;20063;-79
2022/08/31 05:38:31;;;;;;;15.77;10.10;;;;;;;17.86;84.04;96349.28;5053108;28;20041;-79
2022/08/31 05:40:59;;;;;;;20.10;11.00;;;;;;;17.86;83.75;96357.53;5053236;28;20124;-79
2022/08/31 05:43:26;;;;;;;14.57;10.30;;;;;;;17.84;83.88;96354.34;5052497;28;20041;-79
2022/08/31 05:45:53;;;;;;;13.98;9.65;;;;;;;17.85;84.36;96353.16;5052950;28;20412;-79
2022/08/31 05:48:20;;;;;;;14.38;10.27;;;;;;;17.89;84.64;96356.00;5052645;28;20120;-81
2022/08/31 05:50:46;;;;;;;14.48;10.27;;;;;;;17.89;84.46;96361.50;5052810;28;20052;-79
2022/08/31 05:53:13;;;;;;;15.38;10.18;;;;;;;17.86;84.50;96357.53;5052408;28;20041;-79
2022/08/31 05:55:39;;;;;;;15.18;10.90;;;;;;;17.85;84.85;96355.91;5052921;28;20040;-77
2022/08/31 05:58:07;;;;;;;14.55;9.98;;;;;;;17.85;85.32;96355.91;5052511;28;20048;-77
2022/08/31 06:00:36;;;;;;;15.18;10.48;;;;;;;17.87;84.96;96359.13;5052975;28;20127;-77
2022/08/31 06:03:02;;;;;;;14.90;10.85;;;;;;;17.85;85.57;96347.66;5052319;28;20045;-77
2022/08/31 06:05:29;;;;;;;15.23;10.52;;;;;;;17.85;85.73;96350.41;5052418;28;20056;-77
2022/08/31 06:07:56;;;;;;;16.30;11.10;;;;;;;17.89;86.08;96356.00;5052720;28;20128;-78
2022/08/31 06:10:22;;;;;;;14.95;10.65;;;;;;;17.89;85.43;96356.78;5052201;28;20053;-79
2022/08/31 06:12:49;;;;;;;15.80;11.13;;;;;;;17.89;85.07;96356.78;5052634;28;20037;-80
2022/08/31 06:15:17;;;;;;;15.00;11.02;;;;;;;17.94;85.62;96364.75;5052057;28;20051;-79
2022/08/31 06:17:44;;;;;;;15.85;10.55;;;;;;;18.04;85.37;96368.06;5052552;28;20044;-79
2022/08/31 06:20:11;;;;;;;15.80;10.70;;;;;;;18.05;84.95;96364.16;5051915;28;20041;-80
2022/08/31 06:22:37;;;;;;;14.40;10.75;;;;;;;18.03;84.25;96367.28;5052286;28;20407;-79
2022/08/31 06:25:06;;;;;;;15.70;10.50;;;;;;;18.09;83.71;96371.31;5051689;28;20056;-79
2022/08/31 06:27:33;;;;;;;12.30;9.88;;;;;;;18.17;84.37;96372.25;5052088;28;20045;-80
2022/08/31 06:30:01;;;;;;;14.38;10.27;;;;;;;18.19;82.81;96367.19;5052050;28;20536;-79
2022/08/31 06:32:28;;;;;;;12.65;9.82;;;;;;;18.22;82.68;96375.50;5051808;28;20045;-79
2022/08/31 06:34:55;;;;;;;17.05;11.20;;;;;;;18.23;82.36;96382.63;5051105;28;20045;-80
2022/08/31 06:37:21;;;;;;;15.30;10.15;;;;;;;18.20;82.07;96388.06;5071803;28;20063;-79
2022/08/31 06:39:48;;;;;;;15.82;9.60;;;;;;;18.19;82.11;96391.97;5075964;28;20049;-81
2022/08/31 06:42:14;;;;;;;12.77;10.10;;;;;;;18.22;82.00;96391.25;5056307;28;20396;-82
2022/08/31 06:44:41;;;;;;;13.70;9.48;;;;;;;18.26;81.60;96397.59;5054050;28;20492;-81
2022/08/31 06:47:07;;;;;;;15.98;10.50;;;;;;;18.23;81.66;96395.59;5053893;28;20051;-81
2022/08/31 06:49:35;;;;;;;13.00;10.32;;;;;;;18.25;81.80;96396.03;5057050;28;20080;-83
2022/08/31 06:52:02;;;;;;;18.25;11.40;;;;;;;18.21;81.59;96390.44;5061626;28;20045;-75
2022/08/31 06:54:29;;;;;;;14.13;10.18;;;;;;;18.27;82.09;96393.72;5052657;28;20041;-80
2022/08/31 06:56:57;;;;;;;13.90;10.18;;;;;;;18.29;82.16;96398.84;5052883;28;20064;-80
2022/08/31 06:59:23;;;;;;;16.00;9.77;;;;;;;18.34;81.77;96387.53;5059211;28;20041;-80
2022/08/31 07:01:49;;;;;;;14.43;10.02;;;;;;;18.36;81.56;96394.25;5049127;28;20500;-80
2022/08/31 07:04:16;;;;;;;16.10;10.30;;;;;;;18.36;81.16;96387.94;5051217;28;20492;-80
2022/08/31 07:06:45;;;;;;;12.85;9.63;;;;;;;18.37;81.54;96386.75;5076236;28;20409;-81
2022/08/31 07:09:14;;;;;;;15.45;10.90;;;;;;;18.44;82.23;96393.22;5088210;22;20056;-80
2022/08/31 07:11:44;;;;;;;18.70;10.95;;;;;;;18.44;82.00;96393.22;5077023;28;20051;-81
2022/08/31 07:14:12;;;;;;;13.93;9.75;;;;;;;18.39;82.46;96399.03;5071896;28;20044;-79
2022/08/31 07:16:40;;;;;;;15.05;10.43;;;;;;;18.42;82.44;96398.28;5073067;28;20044;-81
2022/08/31 07:19:07;;;;;;;15.68;10.38;;;;;;;18.38;82.18;96396.66;5071816;28;20048;-81
2022/08/31 07:21:35;;;;;;;15.85;9.90;;;;;;;18.38;82.15;96397.44;5071997;28;20045;-79
2022/08/31 07:24:05;;;;;;;15.32;10.35;;;;;;;18.37;82.02;96409.63;5077069;28;20072;-78
2022/08/31 07:26:34;;;;;;;17.33;10.82;;;;;;;18.36;82.00;96413.53;5077416;28;20044;-83
2022/08/31 07:29:05;;;;;;;15.45;10.85;;;;;;;18.37;81.88;96412.38;5069249;28;20048;-80
2022/08/31 07:31:39;;;;;;;20.65;11.20;;;;;;;18.35;81.87;96411.94;5071594;28;20128;-81
2022/08/31 07:34:06;;;;;;;16.33;9.73;;;;;;;18.40;82.25;96417.16;5070943;28;20052;-81
2022/08/31 07:42:07;;;;;;;14.02;10.00;;;;;;;18.38;81.89;96421.47;5082373;28;20045;-80
2022/08/31 07:42:09;;;;;;;12.10;9.38;;;;;;;18.45;82.84;96416.06;5074673;28;20182;-82
2022/08/31 07:44:36;;;;;;;16.55;11.20;;;;;;;18.53;83.16;96417.75;5071500;28;20057;-80
2022/08/31 07:47:10;;;;;;;19.80;11.40;;;;;;;18.46;82.81;96418.44;5070344;28;20051;-79
2022/08/31 07:49:37;;;;;;;16.02;10.77;;;;;;;18.50;82.78;96413.78;5080819;28;20048;-84
2022/08/31 07:52:04;;;;;;;19.08;10.20;;;;;;;18.51;82.44;96418.16;5072008;28;20052;-85
2022/08/31 07:54:33;;;;;;;13.32;9.57;;;;;;;18.51;82.30;96426.41;5105485;22;20387;-85
2022/08/31 07:57:03;;;;;;;14.45;10.93;;;;;;;18.53;83.13;96428.78;4974924;28;20054;-79
2022/08/31 07:59:31;;;;;;;15.35;10.35;;;;;;;18.59;83.43;96415.53;4971334;28;20101;-78
2022/08/31 08:02:00;;;;;;;17.58;10.32;;;;;;;18.69;83.03;96421.25;4969134;28;20085;-78
2022/08/31 08:04:27;;;;;;;18.02;11.05;;;;;;;18.78;81.89;96415.47;4968843;28;20043;-79
2022/08/31 08:06:56;;;;;;;14.27;10.85;;;;;;;18.81;81.13;96411.19;5050591;22;20037;-81
2022/08/31 08:09:23;;;;;;;15.10;9.75;;;;;;;18.82;81.33;96410.81;5053354;28;20047;-80
2022/08/31 08:11:56;;;;;;;14.85;9.20;;;;;;;18.86;81.71;96413.63;5062500;28;20045;-84
2022/08/31 08:14:23;;;;;;;15.45;9.63;;;;;;;18.89;81.00;96416.41;5064014;28;20041;-79
2022/08/31 08:16:50;;;;;;;16.55;9.23;;;;;;;18.93;81.59;96420.03;5069801;28;20049;-85
2022/08/31 08:19:16;;;;;;;16.42;10.23;;;;;;;18.96;80.62;96413.78;5079423;22;20036;-79
2022/08/31 08:21:44;;;;;;;16.50;9.48;;;;;;;19.03;81.32;96405.59;5060262;28;20041;-80
2022/08/31 08:24:12;;;;;;;14.63;9.93;;;;;;;19.07;79.39;96413.16;5055870;28;20079;-82
2022/08/31 08:26:42;;;;;;;17.13;9.73;;;;;;;19.10;79.29;96413.19;5060729;28;20041;-84
2022/08/31 08:29:10;;;;;;;14.07;10.30;;;;;;;19.09;79.47;96417.13;5059363;28;20055;-80
2022/08/31 08:31:37;;;;;;;16.05;10.35;;;;;;;19.11;79.44;96419.53;5052247;28;20491;-77
2022/08/31 08:34:03;;;;;;;15.02;9.93;;;;;;;19.15;78.10;96420.34;5062495;28;20041;-85
2022/08/31 08:36:34;;;;;;;18.00;10.63;;;;;;;19.18;78.63;96430.66;5049239;28;20035;-85
2022/08/31 08:39:04;;;;;;;14.98;9.63;;;;;;;19.16;78.13;96427.47;5065004;28;20067;-84
2022/08/31 08:41:33;;;;;;;14.88;9.85;;;;;;;19.20;79.19;96433.84;5055900;28;20033;-81
2022/08/31 08:44:03;;;;;;;12.65;9.00;;;;;;;19.33;78.95;96438.00;5057173;28;20065;-83
2022/08/31 08:46:37;;;;;;;15.25;10.32;;;;;;;19.27;78.62;96445.81;5062796;28;20044;-80
2022/08/31 08:49:14;;;;;;;14.98;9.60;;;;;;;19.37;78.21;96443.53;5060292;28;20041;-84
2022/08/31 08:51:42;;;;;;;15.60;10.52;;;;;;;19.41;77.98;96442.44;5055022;28;20048;-80
2022/08/31 08:54:12;;;;;;;17.70;10.32;;;;;;;19.34;77.50;96439.56;5053356;28;20049;-82
2022/08/31 08:59:04;;;;;;;11.45;8.48;;;;;;;19.47;77.88;96454.78;5239237;22;20129;-84
2022/08/31 09:01:34;;;;;;;13.82;8.70;;;;;;;19.49;77.29;96446.91;4979242;28;20046;-82
2022/08/31 09:04:15;;;;;;;16.58;9.20;;;;;;;19.61;77.04;96456.94;5021337;22;20039;-84
2022/08/31 09:06:53;;;;;;;13.73;8.80;;;;;;;19.63;76.64;96451.03;5000213;28;20042;-83
2022/08/31 09:09:35;;;;;;;11.80;8.95;;;;;;;19.65;76.07;96452.28;5053867;28;20492;-82
2022/08/31 09:12:19;;;;;;;15.48;8.20;;;;;;;19.38;71.85;96454.25;5085942;22;20042;-78
2022/08/31 09:14:58;;;;;;;10.48;7.85;;;;;;;19.51;72.48;96454.81;5147784;23;20527;-83
2022/08/31 09:17:38;;;;;;;10.25;7.82;;;;;;;19.63;72.89;96456.56;5058941;28;20041;-80
2022/08/31 09:20:06;;;;;;;10.63;6.97;;;;;;;19.71;72.96;96452.72;5062029;28;20053;-79
2022/08/31 09:22:45;;;;;;;11.52;6.95;;;;;;;19.63;69.59;96451.03;5053644;28;20048;-80
2022/08/31 09:25:15;;;;;;;8.70;6.18;;;;;;;19.64;70.24;96450.69;5050656;28;20072;-84
2022/08/31 09:27:46;;;;;;;9.77;6.72;;;;;;;19.65;70.47;96443.97;5051121;28;20045;-81
2022/08/31 09:30:17;;;;;;;11.63;7.70;;;;;;;19.59;69.32;96447.41;5040108;28;20049;-79
2022/08/31 09:32:56;;;;;;;9.57;6.65;;;;;;;19.60;68.93;96446.28;5035050;28;20076;-79
2022/08/31 09:35:27;;;;;;;10.15;7.20;;;;;;;19.51;67.69;96439.03;5038633;28;20458;-79
2022/08/31 09:38:00;;;;;;;11.30;6.57;;;;;;;19.51;67.27;96441.78;5054828;28;20036;-79
2022/08/31 09:40:37;;;;;;;10.65;6.95;;;;;;;19.58;67.80;96441.09;5054844;28;20090;-79
2022/08/31 09:43:08;;;;;;;10.23;6.53;;;;;;;19.61;68.59;96448.66;5054699;28;20410;-79
2022/08/31 09:45:36;;;;;;;11.43;6.78;;;;;;;19.64;69.86;96452.66;5054703;28;20041;-81
2022/08/31 09:48:05;;;;;;;7.35;5.97;;;;;;;19.69;69.31;96447.59;5054516;28;20067;-77
2022/08/31 09:50:36;;;;;;;12.63;6.78;;;;;;;19.69;68.88;96444.81;5053115;28;20045;-79
2022/08/31 09:56:14;;;;;;;12.13;7.32;;;;;;;19.73;68.88;96450.38;5053476;28;20068;-78
2022/08/31 09:58:47;;;;;;;12.10;6.70;;;;;;;19.72;68.62;96451.56;5052471;28;20408;-79
2022/08/31 10:01:21;;;;;;;12.15;7.13;;;;;;;19.76;68.94;96444.13;5052935;28;20048;-77
2022/08/31 10:03:49;;;;;;;11.23;6.82;;;;;;;19.81;68.30;96447.34;5058088;28;20561;-80
2022/08/31 10:06:45;;;;;;;9.95;7.10;;;;;;;19.93;68.71;96448.28;5062243;28;20037;-83
2022/08/31 10:09:19;;;;;;;9.13;6.43;;;;;;;19.89;67.18;96448.25;5059529;28;20531;-83
2022/08/31 10:11:48;;;;;;;10.13;7.80;;;;;;;19.64;67.97;96447.13;5059289;28;20037;-77
2022/08/31 10:14:23;;;;;;;10.00;6.53;;;;;;;19.71;68.40;96452.72;5052031;28;20053;-79
2022/08/31 10:16:53;;;;;;;9.50;6.60;;;;;;;19.69;67.46;96460.63;5054013;28;20052;-78
2022/08/31 10:19:33;;;;;;;10.35;7.13;;;;;;;19.62;67.48;96454.97;5053190;28;20049;-78
2022/08/31 10:22:04;;;;;;;11.07;6.05;;;;;;;19.56;67.41;96466.31;5051672;28;20075;-77
2022/08/31 10:24:37;;;;;;;13.63;6.90;;;;;;;19.36;66.22;96470.38;5052118;28;20502;-78
2022/08/31 10:27:15;;;;;;;12.68;7.25;;;;;;;19.22;68.41;96470.16;5050999;28;20048;-77
2022/08/31 10:29:48;;;;;;;17.50;7.47;;;;;;;18.92;70.76;96484.69;5052218;28;20059;-77
2022/08/31 10:32:38;;;;;;;9.15;6.90;;;;;;;18.80;73.50;96492.34;5051802;28;20076;-79
2022/08/31 10:35:13;;;;;;;14.27;6.93;;;;;;;18.69;75.99;96497.69;5047726;28;20049;-79
2022/08/31 10:37:48;;;;;;;10.68;6.47;;;;;;;18.51;74.99;96495.34;5052359;28;20067;-78
2022/08/31 10:40:24;;;;;;;10.90;6.28;;;;;;;18.30;75.36;96497.72;5051397;28;20102;-80
2022/08/31 10:43:00;;;;;;;11.50;6.90;;;;;;;18.07;77.95;96505.13;5053218;28;20065;-79
2022/08/31 10:45:28;;;;;;;15.40;6.97;;;;;;;17.94;79.97;96505.25;5053863;28;20064;-81
2022/08/31 10:47:57;;;;;;;9.10;6.88;;;;;;;17.88;79.69;96514.19;5057217;28;20071;-82
2022/08/31 10:50:30;;;;;;;10.13;7.22;;;;;;;17.78;81.28;96512.78;5053646;28;20396;-81
2022/08/31 10:53:09;;;;;;;;;;;;;;;17.52;83.16;96518.06;5054486;28;20041;-80
2022/08/31 10:55:47;;;;;;;11.57;6.82;;;;;;;17.18;82.70;96515.75;5075826;28;19928;-83
2022/08/31 10:58:24;;;;;;;10.32;6.63;;;;;;;17.15;84.11;96515.66;5077014;28;20052;-79
2022/08/31 11:00:55;;;;;;;9.20;6.55;;;;;;;17.03;84.81;96524.81;5074894;28;20490;-81
2022/08/31 11:03:42;;;;;;;12.38;7.88;;;;;;;16.94;86.28;96524.19;5072214;28;20531;-81
2022/08/31 11:06:17;;;;;;;10.32;7.28;;;;;;;16.85;87.82;96523.53;5070814;28;20162;-79
2022/08/31 11:08:48;;;;;;;13.13;8.10;;;;;;;16.78;89.45;96524.16;5072019;28;20040;-77
2022/08/31 11:11:28;;;;;;;13.35;8.70;;;;;;;16.75;90.61;96524.88;5071734;28;20044;-77
2022/08/31 11:14:25;;;;;;;15.30;9.63;;;;;;;16.58;91.55;96522.44;5072117;28;20040;-78
2022/08/31 11:17:25;;;;;;;14.23;8.75;;;;;;;16.42;92.38;96522.41;5079612;28;20049;-83
2022/08/31 11:20:11;;;;;;;13.80;9.98;;;;;;;16.40;94.56;96524.72;5062916;28;20588;-79
2022/08/31 11:23:01;;;;;;;13.48;9.07;;;;;;;16.39;95.28;96529.41;5072070;28;20514;-80
2022/08/31 11:25:57;;;;;;;12.80;9.23;;;;;;;16.43;95.63;96535.78;5071564;28;20496;-80
2022/08/31 11:28:30;;;;;;;18.85;10.63;;;;;;;16.46;97.20;96534.31;5071839;28;20037;-77
2022/08/31 11:31:00;;;;;;;16.95;10.35;;;;;;;16.44;97.82;96531.91;5071975;28;20044;-79
2022/08/31 11:33:28;;;;;;;18.13;11.98;;;;;;;16.46;98.56;96533.50;5071213;28;20151;-78
2022/08/31 11:36:04;;;;;;;14.65;10.23;;;;;;;16.45;98.84;96535.47;5071730;28;20059;-83
2022/08/31 11:38:46;;;;;;;14.85;9.57;;;;;;;16.37;98.57;96539.94;5071348;28;20036;-78
2022/08/31 11:41:33;;;;;;;15.35;10.52;;;;;;;16.36;99.20;96541.09;5070581;28;20055;-78
2022/08/31 11:44:03;;;;;;;19.40;11.63;;;;;;;16.35;100.00;96545.00;5070672;28;20711;-77